Flight Track Log - Related Links

Times and Time Zones

All times are in EDT time to prevent confusion due to time zone crossing. See the FDX1482 flight status page for this flight to view local times or setup timezone preferences in your user account.

Time Position Orientation Groundspeed Altitude Reporting Facility
EDT Latitude Longitude Course Direction KTS MPH feet Rate Location/Type
Tue 05:01:54 AM 35.0167 -89.9667 180° South 148 170 1,400  Level KMEM
Tue 05:03:01 AM 34.9667 -89.9667 180° South 219 252 3,100 2,504 Climbing KMEM
Tue 05:04:01 AM 34.9333 -89.9000 121° Southeast 280 322 6,700 3,000 Climbing KMEM
Tue 05:05:45 AM 34.9744 -89.7336 73° East 328 377 11,300 2,927 Climbing Memphis Center
Tue 05:06:45 AM 35.0175 -89.6142 66° East 360 414 14,700 3,350 Climbing Memphis Center
Tue 05:07:45 AM 35.0647 -89.4869 66° East 391 450 18,000 3,050 Climbing Memphis Center
Tue 05:08:45 AM 35.1139 -89.3569 65° Northeast 412 474 20,800 2,550 Climbing Memphis Center
Tue 05:09:45 AM 35.1647 -89.2192 66° East 428 493 23,100 2,250 Climbing Memphis Center
Tue 05:10:45 AM 35.2156 -89.0761 66° East 443 510 25,300 1,900 Climbing Memphis Center
Tue 05:11:45 AM 35.2642 -88.9456 65° Northeast 452 520 26,900 1,900 Climbing Memphis Center
Tue 05:12:45 AM 35.3208 -88.7947 65° Northeast 472 543 29,100 2,200 Climbing Memphis Center
Tue 05:13:45 AM 35.3711 -88.6486 67° East 472 543 31,300 1,950 Climbing Memphis Center
Tue 05:14:45 AM 35.4231 -88.4997 67° East 472 543 33,000 1,500 Climbing Memphis Center
Tue 05:15:45 AM 35.4792 -88.3506 65° Northeast 472 543 34,300 1,000 Climbing Memphis Center
Tue 05:16:45 AM 35.5331 -88.2039 66° East 472 543 35,000 350 Climbing Memphis Center
Tue 05:17:45 AM 35.5886 -88.0517 66° East 456 525 35,000  Level Memphis Center
Tue 05:18:45 AM 35.6419 -87.8994 67° East 456 525 35,000  Level Memphis Center
Tue 05:19:45 AM 35.6933 -87.7522 67° East 468 539 35,000  Level Memphis Center
Tue 05:20:45 AM 35.7464 -87.6022 66° East 468 539 35,000  Level Memphis Center
Tue 05:21:45 AM 35.7972 -87.4547 67° East 468 539 35,000  Level Memphis Center
Tue 05:22:45 AM 35.8500 -87.3042 67° East 468 539 35,000  Level Memphis Center
Tue 05:23:45 AM 35.8944 -87.1719 67° East 468 539 35,000  Level Memphis Center
Tue 05:24:45 AM 35.9447 -87.0214 68° East 468 539 35,000  Level Memphis Center
Tue 05:25:45 AM 35.9989 -86.8703 66° East 468 539 35,000  Level Memphis Center
Tue 05:26:45 AM 36.0489 -86.7167 68° East 473 544 35,000  Level Memphis Center
Tue 05:27:45 AM 36.1006 -86.5653 67° East 473 544 35,000  Level Memphis Center
Tue 05:28:45 AM 36.1519 -86.4114 67° East 473 544 35,000  Level Memphis Center
Tue 05:29:45 AM 36.2036 -86.2622 67° East 468 539 35,000  Level Memphis Center
Tue 05:30:45 AM 36.2547 -86.1103 67° East 473 544 35,000  Level Memphis Center
Tue 05:31:45 AM 36.3058 -85.9608 67° East 473 544 35,000  Level Memphis Center
Tue 05:33:32 AM 36.3958 -85.6886 68° East 477 549 35,000  Level Indianapolis Center
Tue 05:34:33 AM 36.4467 -85.5353 68° East 477 549 35,000  Level Indianapolis Center
Tue 05:35:33 AM 36.4969 -85.3825 68° East 476 548 35,000  Level Indianapolis Center
Tue 05:36:34 AM 36.5461 -85.2281 68° East 477 549 35,000  Level Indianapolis Center
Tue 05:37:35 AM 36.5964 -85.0742 68° East 478 550 35,000  Level Indianapolis Center
Tue 05:38:35 AM 36.6464 -84.9186 68° East 480 552 35,000  Level Indianapolis Center
Tue 05:39:36 AM 36.6964 -84.7636 68° East 481 554 35,000  Level Indianapolis Center
Tue 05:40:36 AM 36.7447 -84.6078 69° East 481 554 35,000  Level Indianapolis Center
Tue 05:41:37 AM 36.8011 -84.4303 68° East 482 555 35,000  Level Indianapolis Center
Tue 05:42:37 AM 36.8503 -84.2742 68° East 482 555 35,000  Level Indianapolis Center
Tue 05:43:38 AM 36.8989 -84.1181 69° East 484 557 35,000  Level Indianapolis Center
Tue 05:44:39 AM 36.9472 -83.9611 69° East 484 557 35,000  Level Indianapolis Center
Tue 05:45:39 AM 36.9967 -83.8067 68° East 479 551 35,000  Level Indianapolis Center
Tue 05:46:40 AM 37.0456 -83.6492 69° East 481 554 35,000  Level Indianapolis Center
Tue 05:47:40 AM 37.0928 -83.4928 69° East 478 550 35,000  Level Indianapolis Center
Tue 05:48:41 AM 37.1411 -83.3347 69° East 479 551 35,000  Level Indianapolis Center
Tue 05:49:41 AM 37.1903 -83.1758 69° East 483 556 35,000  Level Indianapolis Center
Tue 05:50:42 AM 37.2386 -83.0161 69° East 484 557 35,000  Level Indianapolis Center
Tue 05:51:42 AM 37.2864 -82.8572 69° East 481 554 35,000  Level Indianapolis Center
Tue 05:52:43 AM 37.3336 -82.6969 70° East 484 557 35,000  Level Indianapolis Center
Tue 05:53:43 AM 37.3808 -82.5372 70° East 486 559 35,000  Level Indianapolis Center
Tue 05:54:44 AM 37.4272 -82.3786 70° East 481 554 35,000  Level Indianapolis Center
Tue 05:55:44 AM 37.4744 -82.2197 69° East 483 556 35,000  Level Indianapolis Center
Tue 05:56:45 AM 37.5206 -82.0597 70° East 484 557 35,000  Level Indianapolis Center
Tue 05:57:45 AM 37.5683 -81.9000 69° East 487 560 35,000  Level Indianapolis Center
Tue 05:58:46 AM 37.6128 -81.7406 71° East 483 556 35,000  Level Indianapolis Center
Tue 05:59:46 AM 37.6578 -81.5806 70° East 482 555 35,000  Level Indianapolis Center
Tue 06:00:47 AM 37.7017 -81.4250 70° East 480 552 35,000  Level Indianapolis Center
Tue 06:01:39 AM 37.7325 -81.3086 71° East 483 556 35,000  Level Washington Center
Tue 06:02:36 AM 37.7797 -81.1464 70° East 473 544 35,000  Level Washington Center
Tue 06:03:36 AM 37.8244 -80.9894 70° East 473 544 35,000  Level Washington Center
Tue 06:04:38 AM 37.8689 -80.8347 70° East 473 544 35,000  Level Washington Center
Tue 06:05:37 AM 37.9161 -80.6564 71° East 473 544 35,000  Level Washington Center
Tue 06:06:38 AM 37.9600 -80.5014 70° East 473 544 35,000  Level Washington Center
Tue 06:07:36 AM 38.0042 -80.3408 71° East 473 544 35,000  Level Washington Center
Tue 06:08:37 AM 38.0481 -80.1800 71° East 473 544 35,000  Level Washington Center
Tue 06:09:38 AM 38.0914 -80.0217 71° East 473 544 35,000  Level Washington Center
Tue 06:10:39 AM 38.1300 -79.8789 71° East 473 544 35,000  Level Washington Center
Tue 06:11:36 AM 38.1711 -79.7200 72° East 473 544 35,000  Level Washington Center
Tue 06:12:37 AM 38.2119 -79.5583 72° East 473 544 35,000 -100 Level Washington Center
Tue 06:13:36 AM 38.2528 -79.3967 72° East 473 544 34,800 -1,426 Descending Washington Center
Tue 06:14:39 AM 38.2931 -79.2372 72° East 473 544 32,100 -3,223 Descending Washington Center
Tue 06:15:37 AM 38.3400 -79.0622 71° East 473 544 28,300 -2,975 Descending Washington Center
Tue 06:16:38 AM 38.3819 -78.9025 71° East 473 544 26,200 -1,311 Descending Washington Center
Tue 06:17:36 AM 38.4219 -78.7400 73° East 473 544 25,700 -508 Descending Washington Center
Tue 06:18:36 AM 38.4636 -78.5747 72° East 473 544 25,200 -496 Descending Washington Center
Tue 06:19:37 AM 38.5050 -78.4144 72° East 473 544 24,700 -492 Descending Washington Center
Tue 06:20:38 AM 38.5442 -78.2514 73° East 473 544 24,200 -908 Descending Washington Center
Tue 06:21:36 AM 38.5831 -78.0936 72° East 473 544 22,900 -2,017 Descending Washington Center
Tue 06:22:37 AM 38.6258 -77.9356 71° East 468 539 20,200 -2,231 Descending Washington Center
Tue 06:23:37 AM 38.6453 -77.7819 81° East 451 519 18,400 -1,350 Descending Washington Center
Tue 06:24:37 AM 38.6544 -77.6281 86° East 441 507 17,500 -923 Descending Washington Center
Tue 06:24:55 AM 38.6500 -77.5833 97° East 424 488 17,200 -929 Descending Potomac TRACON
Tue 06:26:01 AM 38.6667 -77.4167 83° East 422 486 16,200 -600 Descending Potomac TRACON
Tue 06:26:55 AM 38.6833 -77.2833 81° East 381 438 16,000 -842 Descending Potomac TRACON
Tue 06:27:55 AM 38.6833 -77.1667 90° East 348 400 14,600 -1,895 Descending Potomac TRACON
Tue 06:28:49 AM 38.6833 -77.0667 90° East 341 392 12,400 -1,778 Descending Potomac TRACON
Tue 06:29:43 AM 38.7000 -76.9500 80° East 327 376 11,400 -1,145 Descending Potomac TRACON
Tue 06:30:39 AM 38.6961 -76.8606 93° East 319 367 10,300 -1,200 Descending Washington Center
Tue 06:32:43 AM 38.7500 -76.6500 72° East 280 322 7,800 -1,341 Descending Potomac TRACON
Tue 06:33:38 AM 38.7833 -76.5833 57° Northeast 274 315 6,300 -1,289 Descending Potomac TRACON
Tue 06:34:44 AM 38.8333 -76.5333 38° Northeast 279 321 5,200 -1,091 Descending Potomac TRACON
Tue 06:35:39 AM 38.9000 -76.5667 339° North 271 312 4,100 -626 Descending Potomac TRACON
Tue 06:36:39 AM 38.9667 -76.6000 339° North 274 315 4,000 -53 Descending Potomac TRACON
Tue 06:37:33 AM 39.0167 -76.6833 308° West 278 320 4,000  Level Potomac TRACON
Tue 06:38:33 AM 39.0500 -76.7667 297° West 280 322 4,000  Level Potomac TRACON
Tue 06:39:34 AM 39.0833 -76.8500 297° West 278 320 4,000 -298 Level Potomac TRACON
Tue 06:40:34 AM 39.1333 -76.9167 314° West 248 285 3,400 -900 Descending Potomac TRACON
Tue 06:41:34 AM 39.1833 -76.9333 346° North 223 257 2,200 -737 Descending Potomac TRACON
Tue 06:42:28 AM 39.1833 -76.8833 90° East 187 215 2,000 -105 Descending Potomac TRACON
Tue 06:43:28 AM 39.1833 -76.8167 90° East 167 192 2,000 -350 Level Potomac TRACON
Tue 06:44:28 AM 39.1833 -76.7667 90° East 138 159 1,300 -700 Descending Potomac TRACON
Tue 06:45:28 AM 39.1833 -76.7167 90° East 122 140 600 -700 Descending Potomac TRACON

Login

Don't have an account? Register now (free) for customized features, flight alerts, and more!